Terminal Aerodrome Forecast
Issued by NWS

Home | Current Version | Previous Version | Text Only | Print | Product List | Glossary On
Versions: 1 2 3 4 5 6 7 8 9 10 11 12 13 14 15 16 17 18 19
628
FTUS43 KILX 260520
TAFBMI
TAF
KBMI 260520Z 2606/2706 14010KT 2SM BR VCSH OVC025
     FM260800 16007KT 4SM BR VCSH SCT006 OVC012
     FM261000 17008KT 2SM -DZ BR OVC006
     FM261700 21012KT 4SM BR VCSH OVC015
     FM262300 23010KT P6SM OVC020=

USA.gov is the U.S. government's official web portal to all federal, state and local government web resources and services.